< < Back
Terminal Aerodrome Forecast


Current Version              Previous Versions:   1  2  3  4  5  6  7  8  9  

Terminal Aerodrome Forecast

676
FTUS42 KTAE 181000 AAA
TAFDHN
TAF AMD
KDHN 181001Z 1810/1906 00000KT P6SM SCT250
      TEMPO 1811/1812 5SM BR
     FM181400 35005KT P6SM BKN250
     FM190400 00000KT P6SM SCT250=



Latest METAR

854
SAUS70 KWBC 182300 RRB
MTRDHN
METAR KDHN 182253Z 00000KT 10SM CLR 28/18 A2994 RMK AO2 SLP133
T02830178


USA.gov is the U.S. government's official web portal to all federal, state and local government web resources and services.